Time;durP1;ratioP1;P1;durP2;ratioP2;P2;SDS_P1;SDS_P2;PMS_P1;PMS_P2;Temp;Humidity;BMP_temperature;BMP_pressure;BME280_temperature;BME280_humidity;BME280_pressure;Samples;Min_cycle;Max_cycle;Signal;HPM_P1;HPM_P2
2021/01/09 00:00:18;;;;;;;19.93;13.77;;;3.50;99.90;;;;;;5056689;28;20418;-73
2021/01/09 00:02:43;;;;;;;22.80;15.30;;;3.50;99.90;;;;;;5054147;28;20463;-73
2021/01/09 00:05:10;;;;;;;20.97;15.23;;;3.50;99.90;;;;;;5055317;28;20421;-73
2021/01/09 00:07:37;;;;;;;23.00;15.97;;;3.50;99.90;;;;;;5053905;28;20184;-74
2021/01/09 00:10:05;;;;;;;22.13;14.33;;;3.50;99.90;;;;;;5042711;28;20477;-73
2021/01/09 00:12:32;;;;;;;21.37;13.90;;;3.40;99.90;;;;;;5037602;28;20434;-74
2021/01/09 00:14:58;;;;;;;19.97;13.97;;;3.40;99.90;;;;;;5035783;28;20905;-74
2021/01/09 00:17:24;;;;;;;20.00;14.17;;;3.40;99.90;;;;;;5036238;28;20506;-74
2021/01/09 00:19:50;;;;;;;21.17;14.67;;;3.40;99.90;;;;;;5038597;28;20254;-74
2021/01/09 00:22:15;;;;;;;23.80;15.00;;;3.30;99.90;;;;;;5036492;28;20456;-73
2021/01/09 00:24:41;;;;;;;23.37;15.47;;;3.30;99.90;;;;;;5040436;28;20207;-74
2021/01/09 00:27:10;;;;;;;19.00;14.27;;;3.40;99.90;;;;;;5038358;28;20205;-74
2021/01/09 00:29:37;;;;;;;24.00;14.77;;;3.50;99.90;;;;;;5037380;28;20202;-74
2021/01/09 00:32:03;;;;;;;21.73;15.63;;;3.50;99.90;;;;;;5055319;28;20519;-74
2021/01/09 00:34:29;;;;;;;21.70;14.23;;;3.60;99.90;;;;;;5056333;28;20432;-74
2021/01/09 00:36:54;;;;;;;22.17;15.00;;;3.60;99.90;;;;;;5059472;28;20459;-74
2021/01/09 00:39:20;;;;;;;22.53;15.07;;;3.70;99.90;;;;;;5058899;28;20201;-73
2021/01/09 00:41:45;;;;;;;23.20;15.70;;;3.60;99.90;;;;;;5040734;28;20199;-73
2021/01/09 00:44:11;;;;;;;23.90;15.40;;;3.50;99.90;;;;;;5040820;28;20214;-73
2021/01/09 00:46:37;;;;;;;21.93;15.40;;;3.50;99.90;;;;;;5046206;28;20203;-73
2021/01/09 00:49:03;;;;;;;25.37;17.27;;;3.40;99.90;;;;;;5061362;28;20417;-74
2021/01/09 00:51:29;;;;;;;25.07;17.20;;;3.40;99.90;;;;;;5045362;28;20181;-73
2021/01/09 00:53:54;;;;;;;24.30;15.40;;;3.30;99.90;;;;;;5050636;28;20424;-74
2021/01/09 00:56:20;;;;;;;26.10;16.30;;;3.20;99.90;;;;;;5062149;28;20205;-73
2021/01/09 00:58:47;;;;;;;27.17;18.63;;;3.20;99.90;;;;;;5066794;28;20265;-74
2021/01/09 01:01:13;;;;;;;32.10;19.93;;;3.20;99.90;;;;;;5055598;28;20183;-73
2021/01/09 01:03:39;;;;;;;31.40;19.20;;;3.10;99.90;;;;;;5040621;28;20453;-74
2021/01/09 01:06:05;;;;;;;28.83;18.03;;;3.10;99.90;;;;;;5046880;28;20201;-74
2021/01/09 01:08:31;;;;;;;26.50;18.43;;;3.10;99.90;;;;;;5064841;28;20405;-73
2021/01/09 01:10:57;;;;;;;28.33;18.60;;;3.10;99.90;;;;;;5069710;28;20422;-73
2021/01/09 01:13:22;;;;;;;31.03;18.60;;;3.10;99.90;;;;;;5040366;28;20189;-73
2021/01/09 01:15:49;;;;;;;33.57;20.60;;;3.10;99.90;;;;;;5039978;28;20294;-73
2021/01/09 01:18:14;;;;;;;34.53;20.70;;;3.10;99.90;;;;;;5041144;28;20234;-73
2021/01/09 01:20:40;;;;;;;32.70;20.60;;;3.10;99.90;;;;;;5040477;28;20441;-74
2021/01/09 01:23:05;;;;;;;35.30;20.67;;;3.10;99.90;;;;;;5050819;28;20599;-73
2021/01/09 01:25:31;;;;;;;33.37;20.37;;;3.20;99.90;;;;;;5060878;28;20196;-73
2021/01/09 01:27:56;;;;;;;37.77;21.93;;;3.30;99.90;;;;;;5053788;28;20171;-73
2021/01/09 01:30:22;;;;;;;32.17;19.20;;;3.30;99.90;;;;;;5039443;28;20171;-73
2021/01/09 01:32:47;;;;;;;36.20;21.77;;;3.40;99.90;;;;;;5054238;28;20193;-75
2021/01/09 01:35:13;;;;;;;33.17;18.70;;;3.40;99.90;;;;;;5060283;28;20175;-75
2021/01/09 01:37:39;;;;;;;37.07;21.33;;;3.40;99.90;;;;;;5060290;28;20182;-74
2021/01/09 01:40:06;;;;;;;31.33;19.37;;;3.30;99.90;;;;;;5058731;28;20194;-75
2021/01/09 01:42:31;;;;;;;32.40;19.70;;;3.20;99.90;;;;;;5046241;28;20175;-74
2021/01/09 01:44:57;;;;;;;37.27;22.43;;;3.10;99.90;;;;;;5059098;28;20891;-74
2021/01/09 01:47:23;;;;;;;34.77;20.50;;;3.00;99.90;;;;;;5058396;28;20206;-74
2021/01/09 01:49:49;;;;;;;33.10;20.07;;;3.10;99.90;;;;;;5056015;28;20270;-74
2021/01/09 01:52:18;;;;;;;40.13;21.27;;;3.10;99.90;;;;;;5047614;28;20449;-74
2021/01/09 01:54:45;;;;;;;33.57;18.37;;;3.10;99.90;;;;;;5043551;28;20429;-74
2021/01/09 01:57:12;;;;;;;34.40;19.43;;;3.10;99.90;;;;;;5039430;28;20764;-74
2021/01/09 01:59:41;;;;;;;33.57;18.37;;;3.00;99.90;;;;;;5038420;28;20502;-74
2021/01/09 02:02:09;;;;;;;33.40;18.73;;;3.00;99.90;;;;;;5026364;28;20455;-74
2021/01/09 02:04:35;;;;;;;31.10;17.60;;;3.00;99.90;;;;;;5018282;28;20908;-74
2021/01/09 02:07:08;;;;;;;34.87;17.90;;;2.90;99.90;;;;;;5030113;28;20445;-74
2021/01/09 02:09:40;;;;;;;30.20;17.50;;;2.80;99.90;;;;;;5052946;28;20175;-74
2021/01/09 02:12:13;;;;;;;34.57;18.30;;;2.80;99.90;;;;;;5027483;28;20459;-74
2021/01/09 02:14:51;;;;;;;36.53;19.90;;;2.90;99.90;;;;;;5017868;28;21243;-74
2021/01/09 02:17:18;;;;;;;29.40;18.23;;;3.00;99.90;;;;;;5029529;28;20441;-74
2021/01/09 02:19:45;;;;;;;28.63;17.17;;;3.10;99.90;;;;;;5037682;28;20418;-74
2021/01/09 02:22:15;;;;;;;29.00;16.73;;;3.10;99.90;;;;;;5043393;28;20522;-74
2021/01/09 02:24:43;;;;;;;29.33;18.10;;;3.10;99.90;;;;;;5037610;28;20461;-74
2021/01/09 02:27:09;;;;;;;26.40;15.60;;;3.20;99.90;;;;;;5053488;28;20462;-74
2021/01/09 02:29:40;;;;;;;31.30;17.80;;;3.20;99.90;;;;;;5035729;28;20465;-74
2021/01/09 02:32:09;;;;;;;28.07;16.13;;;3.30;99.90;;;;;;5044709;28;20421;-74
2021/01/09 02:34:44;;;;;;;27.80;16.83;;;3.40;99.90;;;;;;5038583;28;20441;-74
2021/01/09 02:37:10;;;;;;;28.43;17.53;;;3.50;99.90;;;;;;5045194;28;20517;-74
2021/01/09 02:39:36;;;;;;;31.50;17.53;;;3.40;99.90;;;;;;5056625;28;20424;-74
2021/01/09 02:42:03;;;;;;;25.87;15.60;;;3.30;99.90;;;;;;5046957;28;20756;-75
2021/01/09 02:44:29;;;;;;;23.60;15.03;;;3.20;99.90;;;;;;5037788;28;20488;-75
2021/01/09 02:46:55;;;;;;;28.20;18.43;;;3.10;99.90;;;;;;5036791;28;20592;-74
2021/01/09 02:49:20;;;;;;;27.77;17.00;;;3.10;99.90;;;;;;5039080;28;20445;-74
2021/01/09 02:51:46;;;;;;;24.23;15.30;;;3.10;99.90;;;;;;5038801;28;20495;-74
2021/01/09 02:54:11;;;;;;;24.70;16.20;;;2.90;99.90;;;;;;5039158;28;20668;-74
2021/01/09 02:56:37;;;;;;;26.97;14.97;;;2.90;99.90;;;;;;5041565;28;20282;-74
2021/01/09 02:59:03;;;;;;;25.07;15.90;;;2.80;99.90;;;;;;5039298;28;20207;-74
2021/01/09 03:01:30;;;;;;;24.03;16.13;;;2.70;99.90;;;;;;5046769;28;20178;-74
2021/01/09 03:03:56;;;;;;;27.17;15.20;;;2.60;99.90;;;;;;5053766;28;20608;-74
2021/01/09 03:06:22;;;;;;;26.33;16.40;;;2.60;99.90;;;;;;5057017;28;20436;-74
2021/01/09 03:08:47;;;;;;;24.60;15.90;;;2.70;99.90;;;;;;5056132;28;20429;-74
2021/01/09 03:11:14;;;;;;;26.10;14.73;;;2.80;99.90;;;;;;5057354;28;20178;-74
2021/01/09 03:13:40;;;;;;;26.50;15.83;;;2.80;99.90;;;;;;5056728;28;20202;-74
2021/01/09 03:16:05;;;;;;;28.40;16.60;;;2.80;99.90;;;;;;5032186;28;20477;-74
2021/01/09 03:18:31;;;;;;;27.43;15.53;;;2.80;99.90;;;;;;5017000;28;20176;-74
2021/01/09 03:20:56;;;;;;;26.67;15.83;;;2.80;99.90;;;;;;5030091;28;20186;-74
2021/01/09 03:23:22;;;;;;;24.63;14.43;;;2.80;99.90;;;;;;5036629;28;20545;-75
2021/01/09 03:25:47;;;;;;;29.47;16.13;;;2.80;99.90;;;;;;5042626;28;20204;-72
2021/01/09 03:28:13;;;;;;;29.83;16.63;;;2.70;99.90;;;;;;5044442;28;20245;-74
2021/01/09 03:30:38;;;;;;;29.80;16.70;;;2.70;99.90;;;;;;5042978;28;20173;-74
2021/01/09 03:33:04;;;;;;;28.70;15.80;;;2.70;99.90;;;;;;5056363;28;20637;-74
2021/01/09 03:35:29;;;;;;;29.03;15.93;;;2.80;99.90;;;;;;5056743;28;20236;-74
2021/01/09 03:37:55;;;;;;;25.80;15.77;;;2.70;99.90;;;;;;5054201;28;20186;-74
2021/01/09 03:40:21;;;;;;;30.30;17.43;;;2.70;99.90;;;;;;5056619;28;20186;-72
2021/01/09 03:42:46;;;;;;;29.20;17.73;;;2.70;99.90;;;;;;5056616;28;20208;-72
2021/01/09 03:45:12;;;;;;;28.23;16.10;;;2.70;99.90;;;;;;5056085;28;20167;-74
2021/01/09 03:47:37;;;;;;;28.70;16.50;;;2.70;99.90;;;;;;5042524;28;20509;-74
2021/01/09 03:50:04;;;;;;;29.83;18.67;;;2.60;99.90;;;;;;5034889;28;20416;-74
2021/01/09 03:52:30;;;;;;;28.63;15.70;;;2.60;99.90;;;;;;5040854;28;20193;-74
2021/01/09 03:54:55;;;;;;;29.20;16.93;;;2.60;99.90;;;;;;5037745;28;20936;-74
2021/01/09 03:57:22;;;;;;;29.03;16.63;;;2.50;99.90;;;;;;5046703;28;20193;-74
2021/01/09 03:59:48;;;;;;;24.60;15.07;;;2.60;99.90;;;;;;5057898;28;20163;-74
2021/01/09 04:02:13;;;;;;;29.27;16.63;;;2.70;99.90;;;;;;5038312;28;20440;-74
2021/01/09 04:04:39;;;;;;;30.60;16.37;;;2.70;99.90;;;;;;5037998;28;20823;-74
2021/01/09 04:07:04;;;;;;;28.47;16.00;;;2.70;99.90;;;;;;5037437;28;20210;-74
2021/01/09 04:09:30;;;;;;;31.57;17.97;;;2.70;99.90;;;;;;5035855;28;20226;-74
2021/01/09 04:11:55;;;;;;;27.57;16.33;;;2.60;99.90;;;;;;5040689;28;20187;-74
2021/01/09 04:14:21;;;;;;;37.13;19.53;;;2.60;99.90;;;;;;5039512;28;20687;-74
2021/01/09 04:16:46;;;;;;;37.97;20.53;;;2.60;99.90;;;;;;5040793;28;20293;-74
2021/01/09 04:19:12;;;;;;;34.53;20.53;;;2.50;99.90;;;;;;5039784;28;20243;-74
2021/01/09 04:21:44;;;;;;;40.53;22.13;;;2.50;99.90;;;;;;5039315;28;20191;-74
2021/01/09 04:24:10;;;;;;;36.93;20.03;;;2.60;99.90;;;;;;5055374;28;20202;-74
2021/01/09 04:26:36;;;;;;;38.60;22.60;;;2.70;99.90;;;;;;5046411;28;20480;-74
2021/01/09 04:29:02;;;;;;;38.90;19.90;;;2.60;99.90;;;;;;5029701;28;20422;-73
2021/01/09 04:31:27;;;;;;;40.47;22.27;;;2.60;99.90;;;;;;5039797;28;20556;-73
2021/01/09 04:33:53;;;;;;;39.07;21.33;;;2.60;99.90;;;;;;5048172;28;20198;-72
2021/01/09 04:36:18;;;;;;;36.97;20.77;;;2.60;99.90;;;;;;5057981;28;20191;-73
2021/01/09 04:38:44;;;;;;;42.63;22.07;;;2.70;99.90;;;;;;5057387;28;20206;-74
2021/01/09 04:41:10;;;;;;;46.40;22.50;;;2.80;99.90;;;;;;5039850;28;20194;-73
2021/01/09 04:43:36;;;;;;;38.57;22.10;;;2.90;99.90;;;;;;5054059;28;20187;-74
2021/01/09 04:46:02;;;;;;;39.63;21.50;;;2.80;99.90;;;;;;5057413;28;20901;-73
2021/01/09 04:48:28;;;;;;;43.43;22.57;;;2.80;99.90;;;;;;5062775;28;20444;-73
2021/01/09 04:50:54;;;;;;;44.60;21.80;;;2.90;99.90;;;;;;5059616;28;20504;-73
2021/01/09 04:53:22;;;;;;;37.07;21.17;;;2.90;99.90;;;;;;5044826;28;20885;-76
2021/01/09 04:55:48;;;;;;;39.90;20.87;;;3.00;99.90;;;;;;5019513;28;20231;-74
2021/01/09 04:58:14;;;;;;;41.13;21.00;;;3.10;99.90;;;;;;5037328;28;20811;-74
2021/01/09 05:00:40;;;;;;;43.70;20.20;;;3.00;99.90;;;;;;5045133;28;20236;-74
2021/01/09 05:03:06;;;;;;;34.73;19.10;;;3.00;99.90;;;;;;5058204;28;20448;-74
2021/01/09 05:05:31;;;;;;;38.47;19.87;;;3.00;99.90;;;;;;5056362;28;20448;-73
2021/01/09 05:07:57;;;;;;;34.10;19.47;;;2.90;99.90;;;;;;5058392;28;20177;-74
2021/01/09 05:10:23;;;;;;;37.27;19.40;;;2.90;99.90;;;;;;5058185;28;20288;-73
2021/01/09 05:12:49;;;;;;;34.60;16.80;;;2.90;99.90;;;;;;5058172;28;20429;-74
2021/01/09 05:15:14;;;;;;;31.70;16.67;;;2.70;99.90;;;;;;5056447;28;20428;-73
2021/01/09 05:17:40;;;;;;;32.50;18.33;;;2.70;99.90;;;;;;5057728;28;20421;-72
2021/01/09 05:20:08;;;;;;;33.57;17.07;;;2.60;99.90;;;;;;5058374;28;20178;-73
2021/01/09 05:22:38;;;;;;;30.23;17.23;;;2.50;99.90;;;;;;5055408;28;20194;-74
2021/01/09 05:25:04;;;;;;;37.30;18.50;;;2.40;99.90;;;;;;5056075;28;20425;-73
2021/01/09 05:27:30;;;;;;;30.37;16.90;;;2.30;99.90;;;;;;5049261;28;20476;-74
2021/01/09 05:29:56;;;;;;;27.00;15.57;;;2.40;99.90;;;;;;5039250;28;20417;-73
2021/01/09 05:32:23;;;;;;;30.97;17.33;;;2.40;99.90;;;;;;5039328;28;20198;-74
2021/01/09 05:34:51;;;;;;;33.77;18.27;;;2.30;99.90;;;;;;5037985;28;20938;-73
2021/01/09 05:37:22;;;;;;;35.70;18.47;;;2.30;99.90;;;;;;5054795;28;20455;-73
2021/01/09 05:39:53;;;;;;;32.53;18.03;;;2.30;99.90;;;;;;5058397;28;20930;-73
2021/01/09 05:42:23;;;;;;;32.60;17.93;;;2.20;99.90;;;;;;5055825;28;20514;-73
2021/01/09 05:44:50;;;;;;;28.40;16.60;;;2.30;99.90;;;;;;5057580;28;20513;-73
2021/01/09 05:47:19;;;;;;;30.30;16.50;;;2.40;99.90;;;;;;5044109;28;20521;-73
2021/01/09 05:49:45;;;;;;;28.63;16.03;;;2.50;99.90;;;;;;5046521;28;20417;-73
2021/01/09 05:52:11;;;;;;;31.20;17.03;;;2.60;99.90;;;;;;5057118;28;20844;-72
2021/01/09 05:54:37;;;;;;;32.63;16.33;;;2.60;99.90;;;;;;5057282;28;20416;-72
2021/01/09 05:57:04;;;;;;;33.93;16.50;;;2.50;99.90;;;;;;5056676;28;20468;-73
2021/01/09 05:59:33;;;;;;;27.20;16.10;;;2.60;99.90;;;;;;5056549;28;20614;-73
2021/01/09 06:02:00;;;;;;;26.23;15.33;;;2.70;99.90;;;;;;5054700;28;20439;-73
2021/01/09 06:04:31;;;;;;;28.83;16.60;;;2.70;99.90;;;;;;5043390;28;20459;-73
2021/01/09 06:07:06;;;;;;;28.90;14.90;;;2.70;99.90;;;;;;5036631;28;20425;-73
2021/01/09 06:09:35;;;;;;;29.47;16.87;;;2.80;99.90;;;;;;5038071;28;20452;-73
2021/01/09 06:12:07;;;;;;;25.00;14.27;;;2.80;99.90;;;;;;5047732;28;20482;-72
2021/01/09 06:14:35;;;;;;;25.93;15.80;;;2.90;99.90;;;;;;5045830;28;20436;-72
2021/01/09 06:17:02;;;;;;;33.20;17.57;;;2.90;99.90;;;;;;5039228;28;20456;-72
2021/01/09 06:19:28;;;;;;;31.40;17.60;;;2.90;99.90;;;;;;5038698;28;20717;-73
2021/01/09 06:21:55;;;;;;;32.60;17.30;;;2.90;99.90;;;;;;5043115;28;20421;-72
2021/01/09 06:24:22;;;;;;;32.13;16.27;;;2.90;99.90;;;;;;5058333;28;20475;-74
2021/01/09 06:26:47;;;;;;;33.00;17.33;;;2.90;99.90;;;;;;5057551;28;20466;-74
2021/01/09 06:29:21;;;;;;;32.77;17.67;;;2.90;99.90;;;;;;5045981;28;20517;-74
2021/01/09 06:31:55;;;;;;;33.63;17.40;;;2.90;99.90;;;;;;5041761;28;20184;-74
2021/01/09 06:34:28;;;;;;;30.70;16.13;;;3.00;99.90;;;;;;5054154;28;20504;-75
2021/01/09 06:36:59;;;;;;;29.97;16.60;;;3.00;99.90;;;;;;5036011;28;20831;-74
2021/01/09 06:39:34;;;;;;;32.77;17.33;;;3.00;99.90;;;;;;5036867;28;20545;-74
2021/01/09 06:42:04;;;;;;;34.70;17.10;;;3.10;99.90;;;;;;5037699;28;20429;-74
2021/01/09 06:44:31;;;;;;;33.10;17.63;;;3.10;99.90;;;;;;5037152;28;20464;-74
2021/01/09 06:46:56;;;;;;;29.07;17.10;;;3.20;99.90;;;;;;5037274;28;20450;-74
2021/01/09 06:49:25;;;;;;;29.00;16.20;;;3.20;99.90;;;;;;5037586;28;20406;-74
2021/01/09 06:52:02;;;;;;;31.23;17.07;;;3.30;99.90;;;;;;5052047;28;20216;-74
2021/01/09 06:54:39;;;;;;;31.13;17.27;;;3.20;99.90;;;;;;5057279;28;20416;-74
2021/01/09 06:57:05;;;;;;;29.40;15.00;;;3.10;99.90;;;;;;5047997;28;20469;-74
2021/01/09 06:59:37;;;;;;;28.07;17.00;;;3.00;99.90;;;;;;5037018;28;20513;-74
2021/01/09 07:02:22;;;;;;;32.33;16.27;;;2.90;99.90;;;;;;5036446;28;20274;-74
2021/01/09 07:04:52;;;;;;;35.20;16.50;;;2.80;99.90;;;;;;5034670;28;20457;-74
2021/01/09 07:07:38;;;;;;;32.37;16.97;;;2.70;99.90;;;;;;5035528;28;20753;-74
2021/01/09 07:10:17;;;;;;;33.13;15.77;;;2.70;99.90;;;;;;5039599;28;20452;-73
2021/01/09 07:12:48;;;;;;;35.30;17.03;;;2.80;99.90;;;;;;5036616;28;20437;-74
2021/01/09 07:15:16;;;;;;;35.27;17.07;;;2.80;99.90;;;;;;5035807;28;20460;-73
2021/01/09 07:17:45;;;;;;;29.27;16.00;;;2.90;99.90;;;;;;5034998;28;20441;-73
2021/01/09 07:20:13;;;;;;;31.90;17.00;;;2.90;99.90;;;;;;5035061;28;20433;-73
2021/01/09 07:22:40;;;;;;;28.17;14.27;;;2.80;99.90;;;;;;5035760;28;20445;-73
2021/01/09 07:25:10;;;;;;;30.50;16.37;;;2.80;99.90;;;;;;5034898;28;20765;-73
2021/01/09 07:27:47;;;;;;;35.90;17.73;;;2.80;99.90;;;;;;5035942;28;20769;-73
2021/01/09 07:30:24;;;;;;;30.40;15.50;;;2.70;99.90;;;;;;5035390;28;20433;-73
2021/01/09 07:32:54;;;;;;;32.30;16.70;;;2.70;99.90;;;;;;5039149;28;20446;-74
2021/01/09 07:35:31;;;;;;;34.93;15.77;;;2.70;99.90;;;;;;5055217;28;20413;-74
2021/01/09 07:38:02;;;;;;;25.83;16.07;;;2.70;99.90;;;;;;5054153;28;20939;-74
2021/01/09 07:40:31;;;;;;;28.43;14.90;;;2.60;99.90;;;;;;5055025;28;20486;-74
2021/01/09 07:42:57;;;;;;;29.27;15.60;;;2.60;99.90;;;;;;5035584;28;20514;-73
2021/01/09 07:45:30;;;;;;;28.90;16.50;;;2.60;99.90;;;;;;5037432;28;20421;-73
2021/01/09 07:47:57;;;;;;;26.07;13.10;;;2.60;99.90;;;;;;5039636;28;20182;-73
2021/01/09 07:50:22;;;;;;;31.10;14.43;;;2.70;99.90;;;;;;5038977;28;20742;-73
2021/01/09 07:53:03;;;;;;;28.53;14.93;;;2.70;99.90;;;;;;5042614;28;20441;-73
2021/01/09 07:55:44;;;;;;;27.60;15.17;;;2.70;99.90;;;;;;5038983;28;20289;-73
2021/01/09 07:58:10;;;;;;;27.40;14.60;;;2.80;99.90;;;;;;5039061;28;20464;-72
2021/01/09 08:00:36;;;;;;;31.13;13.07;;;2.80;99.90;;;;;;5039450;28;20418;-72
2021/01/09 08:03:01;;;;;;;26.83;14.53;;;2.80;99.90;;;;;;5039476;28;20523;-73
2021/01/09 08:05:27;;;;;;;26.67;14.03;;;2.70;99.90;;;;;;5041412;28;20292;-73
2021/01/09 08:07:55;;;;;;;26.00;14.40;;;2.80;99.90;;;;;;5039535;28;20199;-73
2021/01/09 08:10:28;;;;;;;29.87;13.83;;;2.80;99.90;;;;;;5041976;28;20210;-72
2021/01/09 08:12:58;;;;;;;26.57;14.13;;;2.90;99.90;;;;;;5055822;28;20433;-73
2021/01/09 08:15:25;;;;;;;24.07;14.10;;;3.00;99.90;;;;;;5048930;28;20892;-73
2021/01/09 08:17:51;;;;;;;24.83;14.00;;;3.00;99.90;;;;;;5048836;28;20406;-72
2021/01/09 08:20:18;;;;;;;22.93;13.57;;;3.10;99.90;;;;;;5060575;28;20432;-74
2021/01/09 08:22:58;;;;;;;23.43;13.27;;;3.20;99.90;;;;;;5058789;28;20441;-74
2021/01/09 08:25:26;;;;;;;22.03;12.83;;;3.30;99.90;;;;;;5042604;28;20421;-73
2021/01/09 08:27:56;;;;;;;26.40;13.03;;;3.40;99.90;;;;;;5040052;28;20401;-74
2021/01/09 08:30:27;;;;;;;28.30;14.53;;;3.40;99.90;;;;;;5038627;28;20428;-74
2021/01/09 08:33:09;;;;;;;21.77;13.50;;;3.40;99.90;;;;;;5035915;28;20522;-74
2021/01/09 08:35:37;;;;;;;27.53;13.57;;;3.50;99.90;;;;;;5039582;28;20498;-73
2021/01/09 08:38:03;;;;;;;26.63;15.60;;;3.50;99.90;;;;;;5039139;28;20418;-74
2021/01/09 08:40:31;;;;;;;25.60;14.20;;;3.60;99.90;;;;;;5036770;28;20756;-74
2021/01/09 08:43:07;;;;;;;27.63;13.63;;;3.70;99.90;;;;;;5036247;28;20947;-73
2021/01/09 08:45:40;;;;;;;28.57;15.53;;;3.80;99.90;;;;;;5038349;28;20475;-74
2021/01/09 08:48:13;;;;;;;21.63;13.40;;;3.90;99.90;;;;;;5037816;28;20423;-74
2021/01/09 08:51:04;;;;;;;26.87;15.13;;;4.00;99.90;;;;;;5036540;28;20406;-74
2021/01/09 08:53:50;;;;;;;34.73;16.83;;;4.00;99.90;;;;;;5035869;28;20421;-75
2021/01/09 08:56:17;;;;;;;26.57;15.53;;;4.10;99.90;;;;;;5033175;28;20447;-75
2021/01/09 08:58:44;;;;;;;26.27;14.70;;;4.10;99.90;;;;;;5036845;28;20471;-76
2021/01/09 09:01:13;;;;;;;28.63;16.13;;;4.10;99.90;;;;;;5036015;28;20454;-76
2021/01/09 09:03:52;;;;;;;30.37;15.70;;;4.20;99.90;;;;;;5036287;28;20481;-76
2021/01/09 09:06:22;;;;;;;31.30;16.03;;;4.10;99.90;;;;;;5039154;28;20454;-76
2021/01/09 09:08:48;;;;;;;29.73;16.17;;;4.10;99.90;;;;;;5042935;28;20426;-75
2021/01/09 09:11:15;;;;;;;31.87;17.23;;;4.00;99.90;;;;;;5035741;28;20431;-74
2021/01/09 09:13:42;;;;;;;27.50;15.97;;;4.00;99.90;;;;;;5036272;28;20429;-74
2021/01/09 09:16:25;;;;;;;34.30;17.30;;;3.80;99.90;;;;;;5037059;28;20430;-73
2021/01/09 09:18:51;;;;;;;29.27;16.00;;;3.70;99.90;;;;;;5037844;28;20421;-74
2021/01/09 09:21:19;;;;;;;29.03;16.80;;;3.60;99.90;;;;;;5037060;28;20451;-73
2021/01/09 09:23:54;;;;;;;35.43;17.90;;;3.60;99.90;;;;;;5035258;28;20238;-74
2021/01/09 09:26:20;;;;;;;30.03;16.10;;;3.70;99.90;;;;;;5037091;28;20499;-74
2021/01/09 09:28:54;;;;;;;28.23;16.23;;;3.80;99.90;;;;;;5038997;28;20426;-75
2021/01/09 09:31:25;;;;;;;28.03;15.60;;;3.90;99.90;;;;;;5040971;28;20475;-75
2021/01/09 09:34:00;;;;;;;32.10;16.40;;;4.00;99.90;;;;;;5039349;28;20444;-74
2021/01/09 09:36:27;;;;;;;35.30;18.03;;;4.10;99.90;;;;;;5036987;28;20438;-75
2021/01/09 09:38:53;;;;;;;32.70;17.13;;;4.20;99.90;;;;;;5037870;28;20449;-75
2021/01/09 09:41:19;;;;;;;33.73;17.90;;;4.30;99.90;;;;;;5040283;28;20452;-74
2021/01/09 09:43:58;;;;;;;32.60;17.83;;;4.40;99.90;;;;;;5036986;28;20213;-74
2021/01/09 09:46:23;;;;;;;32.50;16.50;;;4.50;99.90;;;;;;5036178;28;20207;-74
2021/01/09 09:48:49;;;;;;;35.93;17.37;;;4.60;99.90;;;;;;5039447;28;20730;-75
2021/01/09 09:51:15;;;;;;;35.50;18.27;;;4.60;99.90;;;;;;5058811;28;20201;-74
2021/01/09 09:53:49;;;;;;;33.73;18.10;;;4.50;99.90;;;;;;5059262;28;20228;-75
2021/01/09 09:56:20;;;;;;;29.93;17.10;;;4.50;99.90;;;;;;5049435;28;20205;-74
2021/01/09 09:58:47;;;;;;;33.43;16.57;;;4.50;99.90;;;;;;5036129;28;20509;-74
2021/01/09 10:01:22;;;;;;;34.80;19.43;;;4.50;99.90;;;;;;5037657;28;20952;-74
2021/01/09 10:03:51;;;;;;;26.43;15.53;;;4.60;99.90;;;;;;5035638;28;20478;-74
2021/01/09 10:06:17;;;;;;;30.70;16.53;;;4.60;99.90;;;;;;5037251;28;20437;-74
2021/01/09 10:08:43;;;;;;;29.40;17.00;;;4.60;99.90;;;;;;5037548;28;20426;-75
2021/01/09 10:11:09;;;;;;;29.87;15.37;;;4.70;99.90;;;;;;5036502;28;20473;-74
2021/01/09 10:13:35;;;;;;;30.57;15.27;;;4.70;99.90;;;;;;5036964;28;20463;-74
2021/01/09 10:16:01;;;;;;;34.50;16.40;;;4.70;99.90;;;;;;5034011;28;20440;-76
2021/01/09 10:18:29;;;;;;;30.00;15.03;;;4.80;99.90;;;;;;5034573;28;20420;-74
2021/01/09 10:20:56;;;;;;;29.23;15.80;;;4.80;99.90;;;;;;5034785;28;20435;-74
2021/01/09 10:23:21;;;;;;;29.97;16.93;;;4.80;99.90;;;;;;5042306;28;20457;-73
2021/01/09 10:25:47;;;;;;;23.37;13.53;;;4.80;99.90;;;;;;5055335;28;20439;-75
2021/01/09 10:28:13;;;;;;;28.07;16.27;;;4.80;99.90;;;;;;5055486;28;20307;-75
2021/01/09 10:30:38;;;;;;;30.47;15.17;;;4.80;99.90;;;;;;5054681;28;20231;-75
2021/01/09 10:33:04;;;;;;;25.17;16.07;;;4.80;99.90;;;;;;5051562;28;20221;-76
2021/01/09 10:35:30;;;;;;;27.60;15.17;;;4.60;99.90;;;;;;5054397;28;20208;-76
2021/01/09 10:37:55;;;;;;;28.93;15.67;;;4.50;99.90;;;;;;5054225;28;20187;-75
2021/01/09 10:40:21;;;;;;;28.17;14.43;;;4.50;99.90;;;;;;5054952;28;20795;-75
2021/01/09 10:42:46;;;;;;;32.90;16.80;;;4.40;99.90;;;;;;5054764;28;20260;-75
2021/01/09 10:45:13;;;;;;;30.53;15.97;;;4.40;99.90;;;;;;5053747;28;20179;-75
2021/01/09 10:47:39;;;;;;;33.00;15.40;;;4.60;99.90;;;;;;5054955;28;20572;-74
2021/01/09 10:50:05;;;;;;;28.80;14.50;;;4.60;99.90;;;;;;5054990;28;20416;-75
2021/01/09 10:52:31;;;;;;;29.23;16.67;;;4.50;99.90;;;;;;5054552;28;20162;-75
2021/01/09 10:54:56;;;;;;;28.27;15.33;;;4.40;99.90;;;;;;5050934;28;20766;-76
2021/01/09 10:57:22;;;;;;;29.63;16.00;;;4.40;99.90;;;;;;5054804;28;20200;-75
2021/01/09 10:59:47;;;;;;;29.70;16.73;;;4.30;99.90;;;;;;5033014;28;20681;-75
2021/01/09 11:02:13;;;;;;;28.53;15.30;;;4.30;99.90;;;;;;5017797;28;20195;-75
2021/01/09 11:04:38;;;;;;;31.00;16.00;;;4.30;99.90;;;;;;5022586;28;20212;-76
2021/01/09 11:07:04;;;;;;;30.43;16.37;;;4.40;99.90;;;;;;5031860;28;20205;-76
2021/01/09 11:09:29;;;;;;;24.63;14.33;;;4.40;99.90;;;;;;5034031;28;20165;-76
2021/01/09 11:11:55;;;;;;;31.03;16.90;;;4.40;99.90;;;;;;5033659;28;20664;-76
2021/01/09 11:14:21;;;;;;;30.80;15.73;;;4.30;99.90;;;;;;5052670;28;20175;-75
2021/01/09 11:16:46;;;;;;;33.93;17.10;;;4.00;99.90;;;;;;5016649;28;20222;-75
2021/01/09 11:19:12;;;;;;;31.23;17.00;;;3.90;99.90;;;;;;5014596;28;20486;-76
2021/01/09 11:21:38;;;;;;;30.80;16.50;;;3.90;99.90;;;;;;5013725;28;20669;-75
2021/01/09 11:24:05;;;;;;;33.97;16.83;;;3.90;99.90;;;;;;5043955;28;20202;-74
2021/01/09 11:26:30;;;;;;;37.20;17.37;;;4.00;99.90;;;;;;5053636;28;20444;-75
2021/01/09 11:28:56;;;;;;;29.77;15.60;;;4.10;99.90;;;;;;5056110;28;20458;-75
2021/01/09 11:31:23;;;;;;;31.87;17.33;;;4.20;99.90;;;;;;5055671;28;20177;-74
2021/01/09 11:33:49;;;;;;;31.40;15.43;;;4.30;99.90;;;;;;5055571;28;20208;-75
2021/01/09 11:36:16;;;;;;;27.40;14.57;;;4.30;99.90;;;;;;5057845;28;20476;-74
2021/01/09 11:38:41;;;;;;;25.13;14.70;;;4.30;99.90;;;;;;5053559;28;20413;-74
2021/01/09 11:41:07;;;;;;;25.87;13.73;;;4.40;99.90;;;;;;5049554;28;20414;-74
2021/01/09 11:43:43;;;;;;;27.40;15.00;;;4.40;99.90;;;;;;5037653;28;20212;-76
2021/01/09 11:46:10;;;;;;;25.77;15.63;;;4.30;99.90;;;;;;5038208;28;20455;-74
2021/01/09 11:48:36;;;;;;;26.67;14.50;;;4.30;99.90;;;;;;5043751;28;20410;-75
2021/01/09 11:51:02;;;;;;;24.20;14.00;;;4.30;99.90;;;;;;5052131;28;20422;-75
2021/01/09 11:53:28;;;;;;;25.30;15.47;;;4.30;99.90;;;;;;5040360;28;20473;-75
2021/01/09 11:55:54;;;;;;;28.97;15.40;;;4.20;99.90;;;;;;5047707;28;20446;-78
2021/01/09 11:58:20;;;;;;;31.13;16.67;;;4.30;99.90;;;;;;5074882;28;20175;-75
2021/01/09 12:00:46;;;;;;;28.20;16.53;;;4.30;99.90;;;;;;5074514;28;20425;-76
2021/01/09 12:03:12;;;;;;;33.53;17.17;;;4.30;99.90;;;;;;5058981;28;20193;-76
2021/01/09 12:05:38;;;;;;;36.07;18.47;;;4.40;99.90;;;;;;5053328;28;20430;-75
2021/01/09 12:08:04;;;;;;;37.20;19.30;;;4.30;99.90;;;;;;5035566;28;21014;-75
2021/01/09 12:10:31;;;;;;;35.70;17.97;;;4.30;99.90;;;;;;5033722;28;20178;-77
2021/01/09 12:12:57;;;;;;;30.03;16.77;;;4.40;99.90;;;;;;5033490;28;20441;-76
2021/01/09 12:15:23;;;;;;;34.93;17.23;;;4.50;99.90;;;;;;5033875;28;20770;-76
2021/01/09 12:17:49;;;;;;;31.10;16.40;;;4.50;99.90;;;;;;5035723;28;20210;-75
2021/01/09 12:20:14;;;;;;;30.37;17.10;;;4.50;99.90;;;;;;5032979;28;20411;-76
2021/01/09 12:22:40;;;;;;;30.70;16.40;;;4.50;99.90;;;;;;5033065;28;20185;-77
2021/01/09 12:25:06;;;;;;;27.30;18.07;;;4.50;99.90;;;;;;5040303;28;20221;-77
2021/01/09 12:27:32;;;;;;;32.93;17.60;;;4.60;99.90;;;;;;5051990;28;20701;-76
2021/01/09 12:29:58;;;;;;;31.00;16.33;;;4.50;99.90;;;;;;5055139;28;20442;-76
2021/01/09 12:32:23;;;;;;;28.60;16.97;;;4.40;99.90;;;;;;5056845;28;20246;-77
2021/01/09 12:34:49;;;;;;;32.30;16.70;;;4.50;99.90;;;;;;5058826;28;20520;-77
2021/01/09 12:37:15;;;;;;;32.07;16.60;;;4.50;99.90;;;;;;5039080;28;20192;-77